Time;durP1;ratioP1;P1;durP2;ratioP2;P2;SDS_P1;SDS_P2;PMS_P1;PMS_P2;Temp;Humidity;BMP_temperature;BMP_pressure;BME280_temperature;BME280_humidity;BME280_pressure;Samples;Min_cycle;Max_cycle;Signal;HPM_P1;HPM_P2
2021/09/04 07:00:45;;;;;;;7.95;5.65;;;;;;;18.33;62.55;98848.13;5739481;23;20075;-73
2021/09/04 07:03:11;;;;;;;8.25;4.95;;;;;;;18.38;62.31;98842.66;4947785;28;20031;-73
2021/09/04 07:05:36;;;;;;;5.30;4.80;;;;;;;19.51;58.51;98837.72;4944225;29;20028;-73
2021/09/04 07:08:01;;;;;;;8.40;4.75;;;;;;;20.47;56.82;98839.50;4917835;28;20050;-78
2021/09/04 07:10:27;;;;;;;7.75;4.72;;;;;;;21.07;54.74;98843.03;4943178;29;21543;-73
2021/09/04 07:12:52;;;;;;;5.90;4.95;;;;;;;20.09;55.85;98846.88;4917252;29;20052;-77
2021/09/04 07:15:18;;;;;;;6.55;5.10;;;;;;;18.86;60.70;98849.06;4976058;23;20047;-75
2021/09/04 07:17:43;;;;;;;10.13;5.22;;;;;;;18.75;60.38;98858.28;4955530;28;20027;-76
2021/09/04 07:20:09;;;;;;;19.30;5.68;;;;;;;19.76;58.52;98853.06;4955173;28;20476;-75
2021/09/04 07:22:35;;;;;;;6.35;4.60;;;;;;;20.00;58.24;98857.91;4955232;28;20399;-75
2021/09/04 07:25:00;;;;;;;9.95;5.30;;;;;;;20.72;55.46;98852.09;4955098;28;20027;-75
2021/09/04 07:27:25;;;;;;;8.77;5.15;;;;;;;21.68;52.31;98853.38;4955227;28;20034;-75
2021/09/04 07:29:51;;;;;;;10.73;4.93;;;;;;;21.39;52.53;98851.69;4955156;28;20075;-75
2021/09/04 07:32:16;;;;;;;8.57;4.65;;;;;;;23.16;49.16;98845.53;4949831;28;20405;-75
2021/09/04 07:34:41;;;;;;;7.13;5.28;;;;;;;25.11;44.27;98843.75;4966085;28;20026;-75
2021/09/04 07:37:07;;;;;;;8.43;5.00;;;;;;;24.20;44.53;98854.06;4974310;28;20460;-76
2021/09/04 07:39:32;;;;;;;5.82;4.22;;;;;;;25.26;43.50;98841.72;4974265;28;20031;-76
2021/09/04 07:41:57;;;;;;;6.28;4.85;;;;;;;25.55;42.46;98851.88;4974062;28;20029;-76
2021/09/04 07:44:22;;;;;;;6.90;4.72;;;;;;;25.76;41.52;98849.38;4974243;28;20018;-76
2021/09/04 07:46:48;;;;;;;5.90;4.60;;;;;;;25.94;41.33;98853.22;4974199;28;20031;-75
2021/09/04 07:49:13;;;;;;;7.78;3.92;;;;;;;26.00;42.05;98857.19;4974101;28;20057;-75
2021/09/04 07:51:39;;;;;;;8.73;4.88;;;;;;;26.68;40.22;98856.06;4956710;28;20138;-76
2021/09/04 07:54:05;;;;;;;6.13;4.22;;;;;;;27.14;39.98;98845.09;4954662;28;20030;-76
2021/09/04 07:56:30;;;;;;;8.23;4.43;;;;;;;27.38;38.75;98842.16;4907295;28;20040;-75
2021/09/04 07:58:55;;;;;;;5.53;4.53;;;;;;;26.77;38.79;98847.31;4894486;29;20039;-76
2021/09/04 08:01:21;;;;;;;6.95;4.25;;;;;;;28.28;37.22;98841.31;4920868;29;20038;-76
2021/09/04 08:03:46;;;;;;;9.23;4.22;;;;;;;29.15;36.14;98841.34;4899684;29;20036;-76
2021/09/04 08:06:11;;;;;;;4.50;4.10;;;;;;;26.80;38.75;98851.53;4931299;29;20469;-75
2021/09/04 08:08:37;;;;;;;5.78;4.57;;;;;;;27.51;38.59;98857.03;4910803;29;20581;-77
2021/09/04 08:11:03;;;;;;;8.85;4.47;;;;;;;28.81;36.96;98848.94;4934709;29;20039;-82
2021/09/04 08:13:28;;;;;;;14.90;4.47;;;;;;;30.38;33.20;98846.47;4910640;29;20119;-75
2021/09/04 08:15:54;;;;;;;8.57;4.07;;;;;;;31.20;31.96;98841.84;4934353;29;20127;-76
2021/09/04 08:18:19;;;;;;;5.32;4.45;;;;;;;29.70;34.89;98849.50;4911252;29;20130;-75
2021/09/04 08:20:44;;;;;;;4.45;4.05;;;;;;;31.12;32.90;98839.94;4925317;29;20079;-75
2021/09/04 08:23:10;;;;;;;6.35;3.78;;;;;;;33.46;28.82;98839.09;4890687;29;20492;-75
2021/09/04 08:25:37;;;;;;;8.50;4.35;;;;;;;31.54;31.59;98841.06;4915138;29;20040;-76
2021/09/04 08:28:07;;;;;;;6.65;3.83;;;;;;;32.90;30.14;98846.19;4895326;28;20050;-75
2021/09/04 08:30:33;;;;;;;4.85;3.92;;;;;;;33.94;27.52;98848.00;4926920;29;20043;-75
2021/09/04 08:32:58;;;;;;;9.38;4.15;;;;;;;33.36;28.63;98846.44;4897532;29;20413;-75
2021/09/04 08:35:24;;;;;;;7.05;3.90;;;;;;;33.49;28.78;98849.47;4926030;29;20034;-75
2021/09/04 08:37:52;;;;;;;6.45;3.83;;;;;;;33.51;28.31;98854.69;4910784;29;20489;-76
2021/09/04 08:40:18;;;;;;;6.22;3.53;;;;;;;34.84;27.05;98860.91;4933799;29;20393;-76
2021/09/04 08:42:44;;;;;;;8.55;3.95;;;;;;;33.71;27.46;98853.28;4910699;29;20374;-75
2021/09/04 08:45:10;;;;;;;5.40;3.63;;;;;;;34.51;25.99;98855.75;4934765;29;20063;-75
2021/09/04 08:47:36;;;;;;;4.20;3.60;;;;;;;34.76;25.98;98847.50;4934637;29;20106;-75
2021/09/04 08:50:01;;;;;;;4.63;3.80;;;;;;;33.84;26.21;98852.69;4890070;29;20127;-75
2021/09/04 08:52:28;;;;;;;5.88;3.38;;;;;;;34.71;26.45;98850.72;4915651;29;20064;-76
2021/09/04 08:54:53;;;;;;;10.40;4.57;;;;;;;34.31;26.63;98849.13;4890732;29;20080;-76
2021/09/04 08:57:18;;;;;;;8.75;3.70;;;;;;;33.96;26.47;98848.66;4915721;29;20610;-75
2021/09/04 08:59:49;;;;;;;6.10;3.80;;;;;;;34.35;26.07;98855.00;4906320;28;20051;-76
2021/09/04 09:02:14;;;;;;;4.97;3.88;;;;;;;32.83;28.25;98850.53;4915644;29;20583;-75
2021/09/04 09:04:40;;;;;;;5.60;3.10;;;;;;;35.05;26.14;98845.94;4907429;29;20055;-75
2021/09/04 09:07:08;;;;;;;4.75;3.30;;;;;;;35.01;25.64;98840.94;4940920;29;20054;-76
2021/09/04 09:09:34;;;;;;;3.63;3.33;;;;;;;34.20;27.42;98849.56;4915806;29;20039;-75
2021/09/04 09:11:59;;;;;;;3.85;3.45;;;;;;;34.51;26.30;98839.63;4940724;29;20030;-75
2021/09/04 09:14:28;;;;;;;4.10;3.50;;;;;;;34.91;25.72;98843.03;4915681;29;20059;-76
2021/09/04 09:16:55;;;;;;;;;;;;;;;34.64;25.61;98848.97;4941287;29;20271;-75
2021/09/04 09:19:24;;;;;;;4.38;3.72;;;;;;;34.12;27.76;98844.22;4917946;29;20796;-75
2021/09/04 09:21:50;;;;;;;5.57;3.70;;;;;;;35.39;24.91;98837.34;4924410;29;20117;-75
2021/09/04 09:24:18;;;;;;;4.85;3.55;;;;;;;34.65;25.61;98845.25;4896605;29;20087;-76
2021/09/04 09:26:59;;;;;;;3.97;3.40;;;;;;;35.52;25.30;98838.41;4920529;29;20038;-75
2021/09/04 09:29:26;;;;;;;5.35;3.20;;;;;;;35.49;25.08;98849.56;4910318;28;20042;-75
2021/09/04 09:32:03;;;;;;;3.72;3.38;;;;;;;35.53;25.07;98845.47;4920357;29;20043;-75
2021/09/04 09:34:29;;;;;;;4.15;3.63;;;;;;;32.92;28.32;98841.47;4907608;29;20568;-75
2021/09/04 09:36:58;;;;;;;4.03;3.63;;;;;;;35.70;25.07;98845.28;4940770;29;20080;-75
2021/09/04 09:39:32;;;;;;;4.75;3.78;;;;;;;35.05;24.63;98841.38;4905253;29;20047;-75
2021/09/04 09:41:59;;;;;;;5.40;3.45;;;;;;;35.45;24.65;98840.19;4940649;29;20032;-75
2021/09/04 09:44:26;;;;;;;6.07;3.45;;;;;;;36.16;23.79;98834.25;4905191;29;20036;-76
2021/09/04 09:46:55;;;;;;;4.57;4.15;;;;;;;36.77;23.16;98835.53;4940445;29;20054;-76
2021/09/04 09:49:31;;;;;;;4.55;3.60;;;;;;;34.92;26.16;98839.31;4916576;29;20040;-75
2021/09/04 09:51:59;;;;;;;4.25;3.55;;;;;;;37.07;23.05;98839.97;4921226;29;20500;-76
2021/09/04 09:54:26;;;;;;;4.60;3.40;;;;;;;36.43;23.38;98841.66;4909971;28;20047;-76
2021/09/04 09:56:56;;;;;;;2.92;2.70;;;;;;;35.86;24.24;98838.84;4923551;29;20028;-76
2021/09/04 09:59:23;;;;;;;3.72;3.30;;;;;;;32.76;25.83;98836.09;4909443;28;20035;-75
2021/09/04 10:01:49;;;;;;;3.75;3.22;;;;;;;34.77;24.42;98833.03;4923734;29;20032;-76
2021/09/04 10:04:15;;;;;;;3.33;3.00;;;;;;;36.78;22.42;98823.69;4904481;29;20115;-77
2021/09/04 10:06:42;;;;;;;4.72;2.90;;;;;;;37.16;22.93;98825.28;4939994;29;20118;-77
2021/09/04 10:09:08;;;;;;;5.85;3.25;;;;;;;36.93;22.07;98812.00;4907448;29;20067;-77
2021/09/04 10:11:36;;;;;;;3.90;3.50;;;;;;;35.09;23.41;98823.00;4939734;29;20027;-77
2021/09/04 10:14:01;;;;;;;4.72;2.80;;;;;;;34.04;23.97;98825.41;4916076;29;20063;-77
2021/09/04 10:16:27;;;;;;;3.28;2.97;;;;;;;31.94;26.90;98819.81;4936123;29;20614;-77
2021/09/04 10:18:53;;;;;;;4.30;3.30;;;;;;;33.91;25.44;98821.44;4912717;29;20043;-77
2021/09/04 10:21:18;;;;;;;3.30;2.80;;;;;;;35.20;23.29;98812.63;4922191;29;20092;-76
2021/09/04 10:23:52;;;;;;;3.55;2.83;;;;;;;35.53;23.13;98815.81;4896103;29;20036;-76
2021/09/04 10:26:23;;;;;;;3.55;3.17;;;;;;;36.85;22.52;98804.03;4924897;29;20394;-77
2021/09/04 10:28:55;;;;;;;3.60;3.30;;;;;;;34.97;23.89;98807.31;4896083;29;20111;-77
2021/09/04 10:31:39;;;;;;;3.83;3.47;;;;;;;33.00;26.27;98809.25;4916732;29;20036;-77
2021/09/04 10:34:15;;;;;;;3.80;3.40;;;;;;;32.86;26.37;98812.59;4896939;29;20564;-76
2021/09/04 10:37:05;;;;;;;5.88;3.03;;;;;;;34.56;24.09;98809.47;4936776;29;20107;-77
2021/09/04 10:40:10;;;;;;;3.72;3.28;;;;;;;33.94;24.58;98810.38;4911944;29;20040;-76
2021/09/04 10:42:40;;;;;;;7.03;3.72;;;;;;;34.40;24.25;98809.56;4933479;29;20126;-76
2021/09/04 10:45:12;;;;;;;3.72;3.33;;;;;;;34.62;24.62;98803.38;4912964;29;20051;-77
2021/09/04 10:47:43;;;;;;;8.38;3.33;;;;;;;35.11;23.81;98799.44;4936741;29;20500;-77
2021/09/04 10:50:30;;;;;;;3.60;3.05;;;;;;;35.46;23.20;98796.03;4907821;29;20043;-77
2021/09/04 10:53:06;;;;;;;7.80;3.28;;;;;;;31.96;25.13;98801.75;4894486;28;20028;-78
2021/09/04 10:55:40;;;;;;;3.22;2.92;;;;;;;32.29;25.12;98795.59;4930139;29;20032;-78
2021/09/04 10:58:10;;;;;;;2.85;2.65;;;;;;;34.35;22.77;98790.44;4894389;29;20032;-78
2021/09/04 11:00:49;;;;;;;6.05;3.10;;;;;;;32.76;25.45;98777.03;4917596;29;20035;-77
2021/09/04 11:03:17;;;;;;;3.15;2.85;;;;;;;34.19;24.73;98781.47;4900910;29;20472;-78
2021/09/04 11:05:56;;;;;;;5.10;3.13;;;;;;;33.96;24.56;98780.59;4928473;29;20428;-78
2021/09/04 11:08:24;;;;;;;3.72;2.83;;;;;;;35.78;21.23;98784.00;4912034;29;20287;-77
2021/09/04 11:11:24;;;;;;;5.53;2.93;;;;;;;35.42;22.22;98773.13;4935560;29;20023;-77
2021/09/04 11:13:52;;;;;;;3.97;3.20;;;;;;;34.72;24.09;98776.22;4911889;29;20299;-77
2021/09/04 11:16:40;;;;;;;3.30;3.00;;;;;;;36.21;21.45;98777.84;4935525;29;20090;-77
2021/09/04 11:19:06;;;;;;;6.03;3.03;;;;;;;35.24;22.73;98770.81;4917015;29;20467;-77
2021/09/04 11:21:34;;;;;;;5.53;4.30;;;;;;;35.51;22.90;98768.50;4919627;29;20065;-77
2021/09/04 11:24:00;;;;;;;7.18;4.68;;;;;;;35.51;22.77;98774.72;4901697;28;20044;-77
2021/09/04 11:26:25;;;;;;;6.50;2.88;;;;;;;34.77;23.27;98779.19;4922866;29;20040;-77
2021/09/04 11:28:58;;;;;;;3.60;3.08;;;;;;;33.17;25.46;98768.94;4900394;28;20477;-77
2021/09/04 11:31:24;;;;;;;5.25;3.08;;;;;;;33.43;26.55;98774.94;4923461;29;20024;-77
2021/09/04 11:33:51;;;;;;;3.63;3.03;;;;;;;34.71;24.38;98769.97;4900429;29;20182;-77
2021/09/04 11:36:36;;;;;;;4.65;3.40;;;;;;;34.16;24.32;98778.28;4932272;29;20027;-77
2021/09/04 11:39:02;;;;;;;4.07;3.15;;;;;;;34.78;24.53;98775.47;4911321;29;20048;-77
2021/09/04 11:41:27;;;;;;;3.63;3.33;;;;;;;34.18;24.13;98773.56;4934985;29;20042;-77
2021/09/04 11:43:52;;;;;;;5.22;2.83;;;;;;;32.24;25.23;98769.28;4911387;29;20043;-77
2021/09/04 11:46:26;;;;;;;3.10;2.80;;;;;;;34.60;23.94;98766.88;4926367;29;20122;-77
2021/09/04 11:48:53;;;;;;;3.95;3.33;;;;;;;34.96;23.48;98767.94;4911229;29;20040;-77
2021/09/04 11:51:18;;;;;;;6.15;3.20;;;;;;;33.97;25.58;98766.97;4920592;29;20068;-77
2021/09/04 11:53:44;;;;;;;3.55;3.25;;;;;;;32.42;27.32;98764.63;4898888;28;20054;-77
2021/09/04 11:56:17;;;;;;;5.38;3.80;;;;;;;33.52;26.34;98766.84;4925009;29;20024;-77
2021/09/04 11:58:42;;;;;;;5.00;3.53;;;;;;;30.65;29.02;98772.47;4898563;29;20528;-77
2021/09/04 12:01:08;;;;;;;5.63;3.70;;;;;;;31.60;28.83;98757.38;4924991;29;20028;-77
2021/09/04 12:03:35;;;;;;;5.15;3.47;;;;;;;32.41;27.57;98765.66;4899942;29;20044;-77
2021/09/04 12:06:06;;;;;;;3.97;3.40;;;;;;;31.29;28.58;98767.78;4929820;29;20110;-77
2021/09/04 12:08:34;;;;;;;3.70;3.33;;;;;;;30.17;30.04;98757.69;4911108;29;20107;-77
2021/09/04 12:11:02;;;;;;;3.45;3.10;;;;;;;30.20;31.26;98754.72;4934429;29;20023;-77
2021/09/04 12:13:28;;;;;;;6.47;4.00;;;;;;;28.96;31.87;98755.16;4910848;29;20054;-77
2021/09/04 12:15:59;;;;;;;4.85;3.20;;;;;;;28.54;33.15;98750.19;4934070;29;20031;-77
2021/09/04 12:18:35;;;;;;;5.00;4.50;;;;;;;27.25;33.84;98755.50;4910864;29;20090;-75
2021/09/04 12:21:30;;;;;;;4.07;3.45;;;;;;;28.35;34.20;98741.22;4922395;29;20028;-75
2021/09/04 12:24:03;;;;;;;6.20;3.72;;;;;;;28.13;34.16;98736.13;4899320;28;20471;-75
2021/09/04 12:26:28;;;;;;;3.97;3.35;;;;;;;28.42;34.10;98742.31;4922458;29;20024;-75
2021/09/04 12:29:07;;;;;;;3.45;3.10;;;;;;;25.70;35.88;98743.66;4899294;28;20040;-75
2021/09/04 12:31:39;;;;;;;9.48;3.53;;;;;;;26.77;34.68;98746.28;4921890;29;20024;-75
2021/09/04 12:34:05;;;;;;;5.13;3.67;;;;;;;27.19;35.20;98740.94;4898940;29;20039;-76
2021/09/04 12:36:30;;;;;;;3.88;3.25;;;;;;;27.15;33.42;98744.84;4933284;29;20077;-75
2021/09/04 12:38:57;;;;;;;3.37;3.07;;;;;;;26.38;34.50;98735.34;4909553;29;20101;-75
2021/09/04 12:41:31;;;;;;;3.72;3.22;;;;;;;27.12;33.16;98745.94;4933976;29;20256;-75
2021/09/04 12:44:05;;;;;;;4.20;3.40;;;;;;;27.29;34.06;98739.16;4910183;29;20527;-75
2021/09/04 12:46:35;;;;;;;4.10;3.58;;;;;;;27.25;35.41;98743.06;4934222;29;20027;-76
2021/09/04 12:49:22;;;;;;;5.22;3.05;;;;;;;27.04;33.44;98737.75;4910156;29;20075;-76
2021/09/04 12:52:01;;;;;;;3.22;2.85;;;;;;;26.87;32.97;98736.53;4916217;29;20032;-76
2021/09/04 12:54:28;;;;;;;;;;;;;;;26.20;32.60;98736.88;4902860;28;20480;-75
2021/09/04 12:57:03;;;;;;;3.05;2.75;;;;;;;26.78;34.21;98737.31;4919536;29;20001;-76
2021/09/04 12:59:28;;;;;;;3.70;3.08;;;;;;;26.47;33.43;98727.63;4902511;28;20442;-75
2021/09/04 13:01:53;;;;;;;4.60;3.13;;;;;;;25.99;34.62;98734.19;4919306;29;20103;-76
2021/09/04 13:04:19;;;;;;;3.35;2.80;;;;;;;26.28;34.51;98729.13;4899556;29;20107;-76
2021/09/04 13:06:44;;;;;;;3.13;2.83;;;;;;;26.07;34.13;98729.09;4934204;29;20110;-75
2021/09/04 13:09:09;;;;;;;4.10;3.22;;;;;;;26.20;34.14;98726.25;4909953;29;20043;-76
2021/09/04 13:11:35;;;;;;;4.68;3.38;;;;;;;26.31;33.57;98712.94;4933848;29;20473;-76
2021/09/04 13:14:00;;;;;;;3.08;2.78;;;;;;;25.67;35.08;98731.47;4909889;29;20044;-75
2021/09/04 13:16:27;;;;;;;3.38;3.08;;;;;;;26.15;34.64;98723.13;4934257;29;20043;-75
2021/09/04 13:18:53;;;;;;;3.22;2.63;;;;;;;26.34;33.23;98715.31;4910006;29;20135;-75
2021/09/04 13:21:18;;;;;;;5.45;3.17;;;;;;;26.54;34.01;98712.81;4919390;29;20116;-75
2021/09/04 13:23:43;;;;;;;5.32;2.88;;;;;;;26.61;33.95;98708.69;4892181;29;20062;-75
2021/09/04 13:26:09;;;;;;;5.43;2.97;;;;;;;26.46;33.74;98715.31;4915376;29;20028;-75
2021/09/04 13:28:35;;;;;;;4.15;3.03;;;;;;;26.50;32.86;98709.59;4895447;28;20039;-75
2021/09/04 13:31:01;;;;;;;5.43;3.85;;;;;;;26.59;32.62;98707.97;4925964;29;20138;-75
2021/09/04 13:33:30;;;;;;;4.45;2.92;;;;;;;26.94;32.62;98706.78;4898781;29;20044;-75
2021/09/04 13:35:55;;;;;;;6.22;3.42;;;;;;;27.14;32.67;98711.22;4927834;29;20036;-75
2021/09/04 13:38:21;;;;;;;4.78;3.72;;;;;;;26.94;32.58;98707.63;4910279;29;20095;-75
2021/09/04 13:40:46;;;;;;;3.78;3.03;;;;;;;27.03;32.49;98706.81;4933206;29;20615;-75
2021/09/04 13:43:11;;;;;;;6.47;3.00;;;;;;;26.45;31.19;98702.97;4910358;29;20055;-75
2021/09/04 13:45:37;;;;;;;4.93;2.83;;;;;;;26.68;31.63;98699.19;4934103;29;20035;-75
2021/09/04 13:48:03;;;;;;;5.72;2.50;;;;;;;26.70;31.22;98691.97;4934223;29;20027;-75
2021/09/04 13:50:28;;;;;;;5.00;3.33;;;;;;;26.72;32.71;98690.00;4905235;29;20094;-75
2021/09/04 13:52:53;;;;;;;4.03;3.38;;;;;;;26.80;31.86;98687.53;4918641;29;20028;-75
2021/09/04 13:55:19;;;;;;;3.60;3.08;;;;;;;26.97;33.12;98691.38;4909667;28;20164;-75
2021/09/04 13:57:46;;;;;;;3.55;2.90;;;;;;;27.05;32.73;98685.41;4917414;29;20575;-75
2021/09/04 14:00:13;;;;;;;3.17;2.75;;;;;;;27.17;31.10;98684.34;4909595;28;20171;-76
2021/09/04 14:02:38;;;;;;;3.80;3.38;;;;;;;26.99;33.26;98686.78;4921792;29;20024;-76
2021/09/04 14:05:04;;;;;;;3.33;2.97;;;;;;;26.97;31.73;98685.22;4904582;29;20032;-76
2021/09/04 14:07:29;;;;;;;3.35;3.05;;;;;;;26.49;31.93;98689.28;4937584;29;20032;-76
2021/09/04 14:09:55;;;;;;;3.58;2.95;;;;;;;26.60;31.97;98688.41;4912538;29;20040;-76
2021/09/04 14:12:21;;;;;;;3.33;3.00;;;;;;;26.11;30.81;98684.56;4937186;29;20030;-76
2021/09/04 14:14:46;;;;;;;4.03;3.17;;;;;;;26.78;31.44;98681.47;4912267;29;20519;-76
2021/09/04 14:17:11;;;;;;;3.20;2.90;;;;;;;26.80;31.34;98687.53;4937036;29;20032;-76
2021/09/04 14:19:37;;;;;;;3.35;2.95;;;;;;;26.57;30.84;98680.69;4911627;29;20478;-76
2021/09/04 14:22:02;;;;;;;3.60;2.58;;;;;;;26.59;31.13;98679.59;4917876;29;20091;-76
2021/09/04 14:24:28;;;;;;;4.53;2.70;;;;;;;26.82;32.49;98672.28;4904262;28;20126;-76
2021/09/04 14:26:53;;;;;;;4.93;2.90;;;;;;;26.85;30.93;98674.69;4923000;29;20107;-76
2021/09/04 14:29:19;;;;;;;6.43;4.85;;;;;;;26.94;32.78;98666.88;4903106;28;20493;-76
2021/09/04 14:31:44;;;;;;;5.35;3.35;;;;;;;26.91;33.19;98678.63;4923800;29;20463;-76
2021/09/04 14:34:09;;;;;;;3.63;2.95;;;;;;;26.81;33.04;98673.25;4901233;29;20095;-76
2021/09/04 14:36:35;;;;;;;3.35;2.97;;;;;;;27.11;32.07;98671.59;4936037;29;20404;-76
2021/09/04 14:39:00;;;;;;;4.78;2.92;;;;;;;26.48;31.90;98671.66;4913013;29;20036;-76
2021/09/04 14:41:26;;;;;;;3.97;3.13;;;;;;;26.45;31.68;98663.09;4936804;29;20028;-76
2021/09/04 14:43:51;;;;;;;3.00;2.70;;;;;;;26.63;31.75;98667.69;4912560;29;20039;-76
2021/09/04 14:46:16;;;;;;;4.13;3.25;;;;;;;27.04;31.13;98657.13;4936097;29;20032;-76
2021/09/04 14:48:42;;;;;;;3.50;3.08;;;;;;;27.10;30.64;98661.94;4912504;29;20039;-76
2021/09/04 14:51:07;;;;;;;5.00;3.03;;;;;;;27.00;31.16;98661.88;4926987;29;20051;-76
2021/09/04 14:53:32;;;;;;;3.95;3.15;;;;;;;26.82;31.79;98668.78;4896644;28;20044;-76
2021/09/04 14:55:58;;;;;;;3.50;3.10;;;;;;;26.65;30.97;98659.63;4929512;29;20036;-76
2021/09/04 14:58:23;;;;;;;3.42;2.90;;;;;;;26.62;30.82;98662.53;4895299;28;20152;-76
2021/09/04 15:00:48;;;;;;;3.80;3.08;;;;;;;26.25;31.62;98670.91;4929799;29;20470;-76
2021/09/04 15:03:14;;;;;;;4.63;3.25;;;;;;;26.36;32.18;98665.56;4905565;29;20075;-76
2021/09/04 15:05:40;;;;;;;5.63;3.30;;;;;;;26.49;31.15;98659.22;4923448;29;20038;-76
2021/09/04 15:08:05;;;;;;;4.18;3.20;;;;;;;26.33;32.69;98657.84;4936442;29;20031;-76
2021/09/04 15:10:31;;;;;;;3.30;2.90;;;;;;;26.14;32.10;98663.88;4911515;29;20048;-76
2021/09/04 15:12:56;;;;;;;12.13;3.30;;;;;;;26.49;31.88;98659.22;4936176;29;20066;-76
2021/09/04 15:15:21;;;;;;;3.78;3.00;;;;;;;26.13;32.43;98661.34;4912135;29;20050;-76
2021/09/04 15:17:47;;;;;;;7.07;3.47;;;;;;;26.40;32.52;98653.72;4936333;29;20032;-77
2021/09/04 15:20:12;;;;;;;3.20;2.90;;;;;;;25.92;33.08;98648.06;4905636;29;20083;-76
2021/09/04 15:22:38;;;;;;;5.47;2.90;;;;;;;26.48;31.42;98645.09;4917023;29;20039;-76
2021/09/04 15:25:03;;;;;;;4.88;3.20;;;;;;;26.41;31.53;98641.25;4906712;28;20051;-77
2021/09/04 15:27:29;;;;;;;3.65;3.00;;;;;;;26.52;31.62;98645.69;4918054;29;20028;-76
2021/09/04 15:29:54;;;;;;;3.17;2.88;;;;;;;26.43;30.85;98641.16;4905656;28;20047;-76
2021/09/04 15:32:20;;;;;;;4.82;3.80;;;;;;;26.44;30.71;98645.50;4920014;29;20055;-76
2021/09/04 15:34:45;;;;;;;4.07;3.20;;;;;;;26.57;31.36;98641.66;4910911;28;20065;-76
2021/09/04 15:37:10;;;;;;;3.65;3.20;;;;;;;26.38;32.04;98639.69;4935756;29;20031;-76
2021/09/04 15:39:36;;;;;;;3.67;3.20;;;;;;;26.13;32.77;98645.41;4902986;29;20040;-76
2021/09/04 15:42:01;;;;;;;3.45;2.92;;;;;;;26.04;33.38;98636.41;4935342;29;20485;-76
2021/09/04 15:44:27;;;;;;;3.38;3.00;;;;;;;26.38;32.68;98644.16;4911140;29;20662;-77
2021/09/04 15:46:52;;;;;;;4.43;3.53;;;;;;;26.37;33.15;98638.00;4935243;29;20071;-77
2021/09/04 15:49:17;;;;;;;5.72;3.17;;;;;;;25.75;34.55;98641.47;4935759;29;20023;-76
2021/09/04 15:51:43;;;;;;;3.10;2.80;;;;;;;26.00;33.71;98644.75;4918035;29;20598;-78
2021/09/04 15:54:08;;;;;;;4.00;2.90;;;;;;;26.23;33.04;98650.78;4916401;29;20056;-79
2021/09/04 15:56:33;;;;;;;3.92;3.22;;;;;;;26.08;32.83;98647.63;4916364;29;20076;-79
2021/09/04 15:58:59;;;;;;;3.83;3.10;;;;;;;26.24;33.09;98645.34;4916474;29;20058;-79
2021/09/04 16:01:24;;;;;;;3.47;3.03;;;;;;;26.27;33.93;98642.44;4916106;29;20024;-79
2021/09/04 16:03:49;;;;;;;3.95;3.38;;;;;;;26.14;33.42;98647.09;4924411;29;20031;-79
2021/09/04 16:06:15;;;;;;;4.22;3.33;;;;;;;25.86;34.14;98641.41;4932734;29;20039;-79
2021/09/04 16:08:41;;;;;;;3.33;3.03;;;;;;;25.94;33.86;98645.25;4935469;29;20032;-79
2021/09/04 16:11:08;;;;;;;4.03;3.45;;;;;;;26.05;34.26;98639.88;4935116;29;20020;-79
2021/09/04 16:13:35;;;;;;;3.42;3.10;;;;;;;25.86;34.79;98643.22;4934469;29;20042;-79
2021/09/04 16:16:00;;;;;;;3.45;3.15;;;;;;;25.93;33.24;98638.28;4935159;29;20074;-79
2021/09/04 16:18:26;;;;;;;4.85;3.08;;;;;;;26.10;32.89;98641.19;4935293;29;20024;-79
2021/09/04 16:20:51;;;;;;;4.00;3.03;;;;;;;25.99;33.11;98643.06;4924453;29;20474;-79
2021/09/04 16:23:16;;;;;;;3.75;2.92;;;;;;;25.79;33.06;98642.91;4916013;29;20024;-79
2021/09/04 16:25:42;;;;;;;3.22;2.92;;;;;;;25.68;33.71;98642.09;4916122;29;20032;-79
2021/09/04 16:28:07;;;;;;;3.35;3.05;;;;;;;25.61;34.09;98641.72;4916120;29;20065;-79
2021/09/04 16:30:32;;;;;;;17.15;13.85;;;;;;;25.62;34.66;98643.41;4916085;29;20047;-80
2021/09/04 16:32:59;;;;;;;3.92;2.95;;;;;;;25.33;33.91;98649.28;4921713;29;20020;-77
2021/09/04 16:35:24;;;;;;;3.28;2.97;;;;;;;25.48;34.16;98649.00;4925614;29;20028;-80
2021/09/04 16:37:50;;;;;;;3.20;2.90;;;;;;;25.46;34.21;98645.66;4915892;29;20039;-80
2021/09/04 16:40:15;;;;;;;3.28;2.83;;;;;;;25.53;33.91;98653.00;4915924;29;20152;-77
2021/09/04 16:42:40;;;;;;;5.35;3.10;;;;;;;25.20;35.44;98651.25;4915745;29;20111;-77
2021/09/04 16:45:07;;;;;;;3.97;3.67;;;;;;;25.16;35.23;98644.50;4915816;29;20181;-78
2021/09/04 16:47:32;;;;;;;5.57;4.07;;;;;;;25.17;35.68;98650.66;4915843;29;20115;-77
2021/09/04 16:49:57;;;;;;;5.55;4.78;;;;;;;25.01;37.09;98640.41;4915767;29;20107;-77
2021/09/04 16:52:23;;;;;;;11.68;5.60;;;;;;;23.53;45.24;98649.84;4915718;29;20032;-78
2021/09/04 16:54:49;;;;;;;5.40;4.22;;;;;;;23.56;45.92;98636.41;4915641;29;20545;-80
2021/09/04 16:57:14;;;;;;;7.18;3.90;;;;;;;23.40;46.95;98644.59;4915814;29;20032;-75
2021/09/04 16:59:40;;;;;;;5.72;3.53;;;;;;;23.22;48.02;98645.97;4915656;29;20035;-82
2021/09/04 17:02:05;;;;;;;5.65;3.60;;;;;;;22.82;49.67;98649.59;4915523;29;20040;-80
2021/09/04 17:04:31;;;;;;;6.40;3.53;;;;;;;22.63;50.44;98643.91;4925647;29;20500;-80
2021/09/04 17:06:56;;;;;;;8.18;4.10;;;;;;;22.41;50.63;98644.53;4934662;29;20557;-81
2021/09/04 17:09:22;;;;;;;7.57;3.33;;;;;;;22.49;50.01;98641.38;4933360;29;20061;-81
2021/09/04 17:11:47;;;;;;;5.82;3.95;;;;;;;22.07;51.52;98640.69;4934359;29;20090;-80
2021/09/04 17:14:13;;;;;;;5.40;3.50;;;;;;;22.09;51.79;98644.03;4933065;29;20031;-82
2021/09/04 17:16:38;;;;;;;8.73;4.10;;;;;;;21.74;52.69;98649.03;4934565;29;20059;-77
2021/09/04 17:19:04;;;;;;;8.75;3.50;;;;;;;21.47;53.18;98649.06;4934511;29;20055;-83
2021/09/04 17:21:29;;;;;;;4.18;3.65;;;;;;;21.37;53.55;98645.28;4918749;29;20039;-80
2021/09/04 17:23:55;;;;;;;5.25;3.88;;;;;;;21.23;54.27;98657.56;4915768;29;20082;-79
2021/09/04 17:26:20;;;;;;;7.60;3.70;;;;;;;21.14;54.43;98659.94;4919493;29;20443;-78
2021/09/04 17:28:46;;;;;;;5.13;3.78;;;;;;;21.01;55.19;98657.19;4919651;29;20028;-83
2021/09/04 17:31:12;;;;;;;4.00;3.60;;;;;;;20.74;55.51;98660.63;4916019;29;20023;-77
2021/09/04 17:33:37;;;;;;;6.40;3.50;;;;;;;20.75;56.02;98658.81;4921495;29;20063;-81
2021/09/04 17:36:04;;;;;;;5.07;3.70;;;;;;;20.61;56.72;98662.31;4933427;29;20028;-82
2021/09/04 17:38:29;;;;;;;5.05;3.70;;;;;;;20.51;56.89;98669.06;4938283;29;20031;-85
2021/09/04 17:40:55;;;;;;;8.13;3.97;;;;;;;20.40;56.77;98663.53;4937917;29;20067;-81
2021/09/04 17:43:20;;;;;;;6.65;4.13;;;;;;;20.28;56.80;98665.97;4937889;29;20031;-69
2021/09/04 17:45:46;;;;;;;8.77;3.83;;;;;;;20.13;56.41;98664.25;4937803;29;20028;-68
2021/09/04 17:48:12;;;;;;;5.35;4.13;;;;;;;20.03;57.32;98665.75;4938029;29;20090;-69
2021/09/04 17:50:37;;;;;;;4.43;3.40;;;;;;;19.97;57.55;98672.22;4928541;29;20111;-69
2021/09/04 17:53:03;;;;;;;4.30;3.90;;;;;;;19.85;57.93;98666.78;4918674;29;20066;-69
2021/09/04 17:55:28;;;;;;;6.65;3.35;;;;;;;19.67;58.32;98680.03;4918519;29;20043;-69
2021/09/04 17:57:54;;;;;;;4.50;3.13;;;;;;;19.56;58.75;98682.41;4918867;29;20032;-69
2021/09/04 18:00:20;;;;;;;6.07;3.55;;;;;;;19.37;59.39;98684.38;4918640;29;20028;-69
2021/09/04 18:02:46;;;;;;;3.83;3.30;;;;;;;19.37;59.33;98687.00;4922683;29;20393;-69
2021/09/04 18:05:13;;;;;;;4.75;3.47;;;;;;;19.27;59.72;98694.53;4929690;29;20032;-69
2021/09/04 18:07:38;;;;;;;5.05;3.90;;;;;;;19.15;61.07;98693.44;4937561;29;20031;-69
2021/09/04 18:10:04;;;;;;;7.40;3.92;;;;;;;19.11;60.72;98697.16;4937480;29;20028;-69
2021/09/04 18:12:30;;;;;;;6.95;3.70;;;;;;;19.15;59.47;98697.84;4937187;29;20114;-69
2021/09/04 18:14:55;;;;;;;7.63;4.50;;;;;;;19.05;60.18;98702.75;4937307;29;20074;-69
2021/09/04 18:17:20;;;;;;;6.65;4.13;;;;;;;18.78;61.87;98709.44;4937323;29;20051;-69
2021/09/04 18:19:46;;;;;;;4.97;3.53;;;;;;;18.71;62.02;98704.53;4935373;29;20478;-69
2021/09/04 18:22:11;;;;;;;7.72;3.90;;;;;;;18.64;63.28;98708.34;4918163;29;20474;-69
2021/09/04 18:24:36;;;;;;;5.40;3.90;;;;;;;18.50;63.45;98710.84;4918109;29;20028;-69
2021/09/04 18:27:02;;;;;;;9.45;3.78;;;;;;;18.51;63.49;98717.78;4918301;29;20031;-69
2021/09/04 18:29:27;;;;;;;9.95;4.40;;;;;;;18.40;63.58;98720.13;4918175;29;20099;-69
2021/09/04 18:31:52;;;;;;;9.60;4.07;;;;;;;18.34;64.11;98725.69;4918064;29;20039;-69
2021/09/04 18:34:18;;;;;;;7.15;4.22;;;;;;;18.30;64.20;98727.59;4926397;29;20032;-69